Time;durP1;ratioP1;P1;durP2;ratioP2;P2;SDS_P1;SDS_P2;PMS_P1;PMS_P2;Temp;Humidity;BMP_temperature;BMP_pressure;BME280_temperature;BME280_humidity;BME280_pressure;Samples;Min_cycle;Max_cycle;Signal;HPM_P1;HPM_P2
2022/05/27 00:00:18;;;;;;;1.57;1.00;;;;;;;14.14;84.68;97297.88;5054861;28;20230;-54
2022/05/27 00:02:46;;;;;;;1.07;0.93;;;;;;;14.12;84.84;97289.25;5054754;28;20671;-55
2022/05/27 00:05:13;;;;;;;2.20;0.93;;;;;;;14.09;84.21;97284.22;5055154;28;20284;-54
2022/05/27 00:07:42;;;;;;;3.03;1.20;;;;;;;14.04;84.00;97282.00;5051585;28;20203;-55
2022/05/27 00:10:12;;;;;;;1.20;1.10;;;;;;;14.07;83.60;97286.19;5054765;28;20214;-57
2022/05/27 00:12:41;;;;;;;1.83;1.30;;;;;;;13.98;84.95;97287.06;5045710;28;20196;-54
2022/05/27 00:15:09;;;;;;;2.87;1.23;;;;;;;14.04;83.70;97281.16;5054389;28;20219;-55
2022/05/27 00:17:37;;;;;;;1.47;1.10;;;;;;;13.99;84.95;97278.13;5054537;28;20620;-55
2022/05/27 00:20:06;;;;;;;1.63;1.20;;;;;;;14.07;83.52;97275.53;5055408;28;20641;-57
2022/05/27 00:22:33;;;;;;;3.90;1.07;;;;;;;13.92;84.66;97284.00;5067949;28;20202;-56
2022/05/27 00:24:59;;;;;;;2.57;1.00;;;;;;;13.89;85.81;97268.34;5067010;28;20282;-56
2022/05/27 00:27:27;;;;;;;1.80;1.10;;;;;;;13.85;85.99;97266.97;5056691;28;20207;-57
2022/05/27 00:29:53;;;;;;;3.30;1.10;;;;;;;13.87;85.02;97265.03;5054876;28;20269;-56
2022/05/27 00:32:20;;;;;;;2.13;1.00;;;;;;;13.85;84.56;97261.66;5054982;28;20207;-56
2022/05/27 00:34:47;;;;;;;3.60;1.37;;;;;;;13.82;84.93;97267.28;5054804;28;20238;-55
2022/05/27 00:37:15;;;;;;;1.07;0.90;;;;;;;13.69;87.45;97260.63;5054510;28;20203;-56
2022/05/27 00:39:42;;;;;;;0.90;0.90;;;;;;;13.63;87.55;97261.22;5054610;28;20211;-55
2022/05/27 00:42:09;;;;;;;1.30;1.20;;;;;;;13.69;87.17;97269.44;5054428;28;20556;-54
2022/05/27 00:44:37;;;;;;;1.87;1.03;;;;;;;13.64;87.82;97260.25;5054133;28;20195;-57
2022/05/27 00:47:06;;;;;;;1.23;1.13;;;;;;;13.53;87.54;97266.59;5053333;28;20679;-55
2022/05/27 00:49:33;;;;;;;0.70;0.70;;;;;;;13.59;87.27;97273.97;5056936;28;20199;-55
2022/05/27 00:52:06;;;;;;;1.70;1.07;;;;;;;13.53;88.74;97271.91;5058790;28;20214;-54
2022/05/27 00:54:35;;;;;;;1.20;1.10;;;;;;;13.58;88.22;97274.94;5058643;28;20218;-55
2022/05/27 00:57:05;;;;;;;1.00;1.00;;;;;;;13.59;89.23;97273.13;5058515;28;20281;-55
2022/05/27 00:59:40;;;;;;;0.80;0.80;;;;;;;13.54;89.22;97278.88;5058356;28;20209;-55
2022/05/27 01:02:07;;;;;;;1.17;1.07;;;;;;;13.51;88.89;97283.66;5057408;28;20631;-56
2022/05/27 01:04:34;;;;;;;1.17;1.07;;;;;;;13.56;87.81;97276.09;5058542;28;20577;-56
2022/05/27 01:07:01;;;;;;;1.17;1.07;;;;;;;13.41;89.00;97271.25;5058276;28;20207;-55
2022/05/27 01:09:30;;;;;;;2.77;1.30;;;;;;;13.37;89.75;97267.19;5052234;28;20208;-56
2022/05/27 01:12:16;;;;;;;0.80;0.80;;;;;;;13.37;89.97;97274.34;5051655;28;20238;-55
2022/05/27 01:14:57;;;;;;;1.83;1.10;;;;;;;13.29;90.57;97268.91;5047624;28;20231;-55
2022/05/27 01:17:31;;;;;;;1.33;1.10;;;;;;;13.24;90.81;97271.16;5058563;28;20214;-56
2022/05/27 01:20:21;;;;;;;1.10;1.10;;;;;;;13.33;90.29;97267.63;5058211;28;20562;-55
2022/05/27 01:23:36;;;;;;;1.23;1.10;;;;;;;13.23;91.74;97264.16;5058830;28;20355;-54
2022/05/27 01:26:32;;;;;;;1.17;1.00;;;;;;;13.16;92.51;97263.06;5016491;28;20211;-54
2022/05/27 01:29:13;;;;;;;1.43;1.33;;;;;;;13.19;91.51;97266.28;5056362;28;20350;-53
2022/05/27 01:31:45;;;;;;;2.00;0.97;;;;;;;13.22;91.90;97267.81;5058259;28;20199;-55
2022/05/27 01:34:19;;;;;;;1.47;1.10;;;;;;;13.28;91.01;97259.28;5058361;28;20223;-55
2022/05/27 01:36:48;;;;;;;2.30;1.27;;;;;;;13.18;92.15;97261.94;5058068;28;20210;-54
2022/05/27 01:39:23;;;;;;;1.13;1.13;;;;;;;13.17;91.87;97265.59;5058503;28;20542;-56
2022/05/27 01:41:58;;;;;;;1.23;1.10;;;;;;;13.17;91.81;97267.41;5057865;28;20209;-54
2022/05/27 01:44:31;;;;;;;1.80;1.03;;;;;;;13.23;91.43;97269.47;5058174;28;20202;-56
2022/05/27 01:47:01;;;;;;;1.33;1.13;;;;;;;13.13;92.04;97266.03;5045008;28;20631;-56
2022/05/27 01:49:33;;;;;;;1.17;1.07;;;;;;;13.12;91.93;97267.00;5061261;28;20218;-56
2022/05/27 01:52:03;;;;;;;1.10;1.00;;;;;;;13.16;91.20;97271.03;5065856;28;20274;-55
2022/05/27 01:54:36;;;;;;;1.70;1.00;;;;;;;13.01;93.99;97270.63;5066159;28;20231;-55
2022/05/27 01:57:06;;;;;;;1.13;0.90;;;;;;;13.07;91.55;97269.22;5065978;28;20203;-55
2022/05/27 01:59:37;;;;;;;3.63;1.17;;;;;;;13.03;93.28;97259.88;5061102;28;20211;-55
2022/05/27 02:02:09;;;;;;;1.57;1.10;;;;;;;13.09;90.67;97256.63;5061099;28;20286;-55
2022/05/27 02:04:39;;;;;;;1.00;1.00;;;;;;;13.01;93.48;97272.44;5065161;28;20210;-55
2022/05/27 02:07:07;;;;;;;1.30;1.20;;;;;;;12.98;92.83;97263.78;5065540;28;20226;-55
2022/05/27 02:09:42;;;;;;;1.70;1.17;;;;;;;12.99;92.44;97256.66;5063406;28;20196;-55
2022/05/27 02:12:22;;;;;;;0.90;0.90;;;;;;;13.05;91.20;97266.69;5074157;28;20210;-56
2022/05/27 02:14:50;;;;;;;1.23;0.90;;;;;;;12.92;93.45;97269.66;5075633;28;20211;-56
2022/05/27 02:17:25;;;;;;;1.27;1.27;;;;;;;12.85;93.37;97263.25;5076090;28;20207;-55
2022/05/27 02:19:58;;;;;;;1.17;1.03;;;;;;;12.88;94.88;97260.31;5071328;28;20266;-53
2022/05/27 02:22:28;;;;;;;1.20;1.10;;;;;;;12.91;93.92;97260.03;5058077;28;20206;-55
2022/05/27 02:24:57;;;;;;;1.63;1.20;;;;;;;12.81;95.09;97259.19;5056280;28;20207;-55
2022/05/27 02:27:28;;;;;;;1.67;0.97;;;;;;;12.80;94.80;97254.88;5056951;28;20203;-56
2022/05/27 02:29:59;;;;;;;1.50;1.30;;;;;;;12.78;94.46;97259.50;5055553;28;20243;-55
2022/05/27 02:32:30;;;;;;;3.37;1.27;;;;;;;12.83;94.24;97264.34;5056808;28;20202;-55
2022/05/27 02:35:08;;;;;;;0.97;0.93;;;;;;;12.84;93.81;97264.22;5045395;28;20230;-55
2022/05/27 02:37:36;;;;;;;2.73;1.30;;;;;;;12.88;93.16;97260.31;5064500;28;20195;-55
2022/05/27 02:40:05;;;;;;;1.10;1.00;;;;;;;12.82;93.54;97271.47;5078282;28;20217;-55
2022/05/27 02:42:38;;;;;;;1.80;1.43;;;;;;;12.76;95.06;97261.44;5066047;28;20203;-54
2022/05/27 02:45:12;;;;;;;1.37;1.00;;;;;;;12.73;94.38;97271.50;5056820;28;20218;-54
2022/05/27 02:47:47;;;;;;;2.03;0.93;;;;;;;12.69;96.23;97265.63;5056908;28;20590;-54
2022/05/27 02:50:20;;;;;;;1.53;1.20;;;;;;;12.66;95.97;97271.22;5043625;28;20199;-56
2022/05/27 02:52:55;;;;;;;1.20;1.03;;;;;;;12.60;96.21;97277.09;5056642;28;20207;-55
2022/05/27 02:55:33;;;;;;;1.40;1.10;;;;;;;12.68;95.89;97269.25;5055066;28;20235;-55
2022/05/27 02:58:02;;;;;;;0.80;0.80;;;;;;;12.67;96.89;97272.91;5055906;28;20202;-55
2022/05/27 03:00:34;;;;;;;3.53;1.60;;;;;;;12.75;95.09;97274.84;5056251;28;20207;-54
2022/05/27 03:03:04;;;;;;;0.97;0.97;;;;;;;12.67;95.42;97280.03;5055925;28;20638;-55
2022/05/27 03:05:48;;;;;;;3.33;1.30;;;;;;;12.63;96.57;97276.81;5056562;28;20203;-55
2022/05/27 03:08:22;;;;;;;1.40;1.30;;;;;;;12.63;95.62;97276.81;5056322;28;20199;-55
2022/05/27 03:11:09;;;;;;;1.33;1.23;;;;;;;12.59;95.41;97269.25;5052499;28;20667;-55
2022/05/27 03:13:53;;;;;;;1.20;1.10;;;;;;;12.57;96.57;97269.44;5049265;28;20215;-55
2022/05/27 03:16:25;;;;;;;2.23;1.37;;;;;;;12.54;96.85;97269.69;5056125;28;20543;-55
2022/05/27 03:19:05;;;;;;;1.80;1.30;;;;;;;12.60;95.26;97265.66;5055903;28;20191;-55
2022/05/27 03:21:35;;;;;;;2.57;1.23;;;;;;;12.54;97.37;97267.03;5056007;28;20592;-54
2022/05/27 03:24:11;;;;;;;1.23;1.10;;;;;;;12.58;95.88;97268.41;5056406;28;20223;-55
2022/05/27 03:26:54;;;;;;;1.23;1.17;;;;;;;12.52;97.01;97274.28;5055779;28;20229;-56
2022/05/27 03:29:28;;;;;;;1.43;1.33;;;;;;;12.60;95.58;97276.25;5056039;28;20238;-55
2022/05/27 03:32:03;;;;;;;1.53;1.43;;;;;;;12.61;96.03;97272.63;5057433;28;20654;-55
2022/05/27 03:34:37;;;;;;;1.77;1.43;;;;;;;12.54;96.61;97285.59;5056965;28;20207;-54
2022/05/27 03:37:09;;;;;;;2.33;1.30;;;;;;;12.61;96.62;97276.09;5056303;28;20207;-55
2022/05/27 03:39:41;;;;;;;1.37;1.27;;;;;;;12.58;97.47;97268.41;5056794;28;20207;-54
2022/05/27 03:42:08;;;;;;;2.20;1.10;;;;;;;12.55;97.63;97273.16;5057054;28;20628;-55
2022/05/27 03:44:36;;;;;;;1.37;1.27;;;;;;;12.60;96.68;97270.94;5057544;28;20238;-55
2022/05/27 03:47:03;;;;;;;1.73;1.63;;;;;;;12.59;96.61;97277.22;5060148;28;20217;-55
2022/05/27 03:49:32;;;;;;;1.37;1.27;;;;;;;12.53;97.73;97278.63;5067693;28;20214;-56
2022/05/27 03:52:05;;;;;;;2.87;1.17;;;;;;;12.55;98.03;97274.00;5066614;28;20237;-54
2022/05/27 03:54:31;;;;;;;2.10;1.07;;;;;;;12.64;96.89;97275.84;5066552;28;20199;-55
2022/05/27 03:56:58;;;;;;;1.23;1.13;;;;;;;12.64;95.89;97272.34;5066519;28;20225;-55
2022/05/27 03:59:25;;;;;;;3.63;1.70;;;;;;;12.61;97.04;97267.31;5066229;28;20615;-55
2022/05/27 04:02:01;;;;;;;1.57;1.20;;;;;;;12.62;97.61;97269.81;5064170;28;20218;-55
2022/05/27 04:04:29;;;;;;;1.90;1.33;;;;;;;12.66;98.06;97265.91;5063671;28;20214;-56
2022/05/27 04:06:56;;;;;;;1.10;1.00;;;;;;;12.68;98.09;97269.25;5065017;28;20237;-56
2022/05/27 04:09:25;;;;;;;2.40;1.27;;;;;;;12.81;96.29;97275.13;5057510;28;20266;-56
2022/05/27 04:11:52;;;;;;;1.23;1.13;;;;;;;12.83;96.80;97272.31;5050820;28;20207;-56
2022/05/27 04:14:20;;;;;;;1.57;1.00;;;;;;;12.87;96.61;97273.72;5041498;28;20656;-56
2022/05/27 04:16:48;;;;;;;1.60;1.50;;;;;;;12.89;96.96;97277.09;5054441;28;20565;-55
2022/05/27 04:19:15;;;;;;;1.10;1.10;;;;;;;12.93;97.12;97275.81;5041660;28;20207;-54
2022/05/27 04:21:41;;;;;;;1.60;1.50;;;;;;;13.00;97.70;97281.41;5055069;28;20230;-56
2022/05/27 04:24:09;;;;;;;1.63;1.07;;;;;;;13.05;97.51;97266.69;5053576;28;20218;-55
2022/05/27 04:26:37;;;;;;;1.97;1.73;;;;;;;13.22;95.20;97260.66;5071147;28;20207;-55
2022/05/27 04:29:04;;;;;;;1.50;1.30;;;;;;;13.37;94.04;97271.69;5071269;28;20255;-55
2022/05/27 04:31:30;;;;;;;1.40;1.30;;;;;;;13.51;94.30;97268.53;5071128;28;20226;-55
2022/05/27 04:33:58;;;;;;;1.40;1.30;;;;;;;13.75;93.67;97268.00;5057448;28;20217;-56
2022/05/27 04:36:26;;;;;;;1.30;1.27;;;;;;;13.91;92.38;97266.41;5071537;28;20313;-55
2022/05/27 04:38:52;;;;;;;1.57;1.47;;;;;;;13.85;93.19;97266.16;5066189;28;20211;-57
2022/05/27 04:41:21;;;;;;;1.70;1.53;;;;;;;14.02;92.17;97273.34;5069484;28;20203;-55
2022/05/27 04:43:49;;;;;;;1.30;1.20;;;;;;;14.17;91.86;97279.81;5070332;28;20233;-56
2022/05/27 04:46:16;;;;;;;1.30;1.20;;;;;;;14.26;90.87;97275.44;5069447;28;20234;-55
2022/05/27 04:48:42;;;;;;;1.30;1.00;;;;;;;14.51;90.30;97274.72;5071637;28;20230;-56
2022/05/27 04:51:09;;;;;;;1.63;1.50;;;;;;;14.45;88.59;97270.00;5066417;28;20207;-55
2022/05/27 04:53:35;;;;;;;1.60;1.47;;;;;;;14.51;88.25;97256.09;5057934;28;20206;-55
2022/05/27 04:56:03;;;;;;;2.27;1.70;;;;;;;14.41;89.46;97263.31;5063705;28;20279;-55
2022/05/27 04:58:29;;;;;;;1.60;1.50;;;;;;;14.43;89.22;97261.31;5076478;28;20203;-55
2022/05/27 05:00:58;;;;;;;1.50;1.43;;;;;;;14.57;88.80;97254.63;5070354;28;20257;-55
2022/05/27 05:03:24;;;;;;;2.57;1.60;;;;;;;14.74;87.92;97251.13;5055411;28;20222;-55
2022/05/27 05:05:51;;;;;;;3.27;1.70;;;;;;;14.92;87.25;97259.91;5041471;28;20199;-56
2022/05/27 05:08:33;;;;;;;1.40;1.40;;;;;;;15.08;85.17;97264.53;5045746;28;20222;-55
2022/05/27 05:10:59;;;;;;;2.00;1.80;;;;;;;15.36;83.65;97263.41;5053963;28;20233;-55
2022/05/27 05:13:27;;;;;;;2.00;1.90;;;;;;;15.62;81.16;97272.25;5054450;28;20630;-55
2022/05/27 05:15:53;;;;;;;1.80;1.70;;;;;;;15.77;79.96;97278.63;5054129;28;20238;-55
2022/05/27 05:18:22;;;;;;;2.90;1.70;;;;;;;16.06;79.28;97269.41;5054377;28;20206;-57
2022/05/27 05:20:49;;;;;;;3.47;2.00;;;;;;;16.26;78.00;97276.16;5054207;28;20214;-54
2022/05/27 05:23:17;;;;;;;2.27;1.80;;;;;;;16.36;78.43;97282.19;5054121;28;20214;-55
2022/05/27 05:25:44;;;;;;;1.60;1.50;;;;;;;16.59;79.20;97277.06;5054069;28;20256;-55
2022/05/27 05:28:11;;;;;;;1.73;1.60;;;;;;;16.68;78.86;97281.44;5054227;28;20199;-55
2022/05/27 05:30:37;;;;;;;1.50;1.40;;;;;;;17.01;77.01;97276.91;5053841;28;20211;-54
2022/05/27 05:33:07;;;;;;;2.92;1.58;;;;;;;17.37;75.07;97273.72;5054386;28;20199;-55
2022/05/27 05:35:35;;;;;;;1.88;1.52;;;;;;;17.74;74.25;97275.84;5055478;28;20265;-55
2022/05/27 05:38:03;;;;;;;1.70;1.50;;;;;;;17.98;73.22;97268.72;5058484;28;20245;-54
2022/05/27 05:40:32;;;;;;;2.03;1.80;;;;;;;18.16;71.87;97263.97;5057499;28;20695;-54
2022/05/27 05:43:01;;;;;;;1.65;1.30;;;;;;;18.53;69.49;97266.78;5056889;28;20650;-55
2022/05/27 05:45:29;;;;;;;1.42;1.20;;;;;;;18.71;65.73;97261.13;5057784;28;20211;-55
2022/05/27 05:47:56;;;;;;;2.83;1.50;;;;;;;19.19;66.54;97276.00;5058223;28;20202;-55
2022/05/27 05:50:23;;;;;;;1.83;1.30;;;;;;;19.22;63.48;97275.63;5058281;28;20200;-55
2022/05/27 05:52:51;;;;;;;3.88;1.33;;;;;;;19.60;63.83;97274.59;5057522;28;20582;-55
2022/05/27 05:55:19;;;;;;;1.73;1.20;;;;;;;19.92;62.37;97264.53;5057219;28;20644;-55
2022/05/27 05:57:47;;;;;;;1.17;0.95;;;;;;;20.27;61.58;97263.72;5058754;28;20203;-56
2022/05/27 06:00:20;;;;;;;1.70;1.13;;;;;;;20.33;59.15;97273.78;5057610;28;20203;-57
2022/05/27 06:02:46;;;;;;;1.35;1.15;;;;;;;20.41;57.10;97270.13;5057956;28;20199;-56
2022/05/27 06:05:13;;;;;;;2.22;1.05;;;;;;;20.77;58.01;97271.78;5055569;28;20635;-56
2022/05/27 06:07:40;;;;;;;1.50;1.40;;;;;;;20.66;56.13;97280.34;5057684;28;20203;-56
2022/05/27 06:10:09;;;;;;;1.38;1.25;;;;;;;20.94;55.96;97283.09;5052380;28;20272;-54
2022/05/27 06:12:39;;;;;;;3.88;1.17;;;;;;;20.86;57.63;97285.94;5057215;28;20233;-54
2022/05/27 06:15:09;;;;;;;1.75;1.08;;;;;;;20.87;57.02;97284.88;5057061;28;20232;-54
2022/05/27 06:17:36;;;;;;;1.58;1.48;;;;;;;21.18;57.11;97284.59;5057244;28;20238;-54
2022/05/27 06:20:04;;;;;;;1.38;1.27;;;;;;;21.14;56.17;97283.34;5057247;28;20203;-56
2022/05/27 06:22:35;;;;;;;1.42;1.30;;;;;;;21.34;55.92;97287.00;5072026;28;20691;-54
2022/05/27 06:25:04;;;;;;;1.15;1.10;;;;;;;21.54;54.23;97279.91;5043767;28;20215;-53
2022/05/27 06:27:36;;;;;;;1.90;0.98;;;;;;;21.49;54.76;97278.84;5057106;28;20638;-55
2022/05/27 06:35:34;;;;;;;1.42;1.33;;;;;;;21.68;53.48;97276.28;5056474;28;20292;-55
2022/05/27 06:38:00;;;;;;;1.15;1.00;;;;;;;21.85;53.34;97276.81;5072352;28;20657;-55
2022/05/27 06:40:29;;;;;;;1.45;0.98;;;;;;;21.79;52.79;97273.03;5049473;28;20221;-55
2022/05/27 06:42:58;;;;;;;1.63;1.20;;;;;;;21.92;52.92;97277.72;5056669;28;20250;-56
2022/05/27 06:45:25;;;;;;;1.17;1.17;;;;;;;21.74;52.23;97280.91;5057010;28;20312;-54
2022/05/27 06:47:52;;;;;;;1.42;1.25;;;;;;;21.59;54.38;97274.78;5055739;28;20207;-55
2022/05/27 06:50:20;;;;;;;1.70;1.20;;;;;;;21.38;54.15;97271.31;5048444;28;20219;-54
2022/05/27 06:52:46;;;;;;;1.75;1.35;;;;;;;21.72;54.32;97282.09;5051727;28;20203;-53
2022/05/27 06:55:17;;;;;;;0.85;0.85;;;;;;;21.82;52.01;97277.22;5056627;28;20503;-53
2022/05/27 06:57:43;;;;;;;1.15;1.05;;;;;;;21.78;52.28;97274.09;5056931;28;20215;-53
2022/05/27 07:00:14;;;;;;;1.52;1.00;;;;;;;21.52;52.67;97275.75;5056099;28;20206;-53
2022/05/27 07:02:41;;;;;;;1.20;1.10;;;;;;;21.39;52.47;97273.81;5055868;28;20245;-51
2022/05/27 07:05:09;;;;;;;1.60;1.23;;;;;;;21.43;54.59;97276.94;5056078;28;20240;-53
2022/05/27 07:07:36;;;;;;;2.75;1.15;;;;;;;21.53;55.13;97266.66;5055556;28;20212;-52
2022/05/27 07:10:04;;;;;;;1.52;1.13;;;;;;;21.56;53.59;97269.81;5055683;28;20199;-52
2022/05/27 07:12:31;;;;;;;3.50;1.35;;;;;;;21.96;53.99;97272.78;5041712;28;20211;-53
2022/05/27 07:14:59;;;;;;;1.23;1.13;;;;;;;22.35;53.10;97261.34;5055966;28;20544;-54
2022/05/27 07:17:27;;;;;;;1.10;1.00;;;;;;;22.72;52.48;97263.56;5060108;28;20218;-54
2022/05/27 07:19:53;;;;;;;1.42;1.15;;;;;;;22.94;53.81;97256.97;5065886;28;20218;-53
2022/05/27 07:22:20;;;;;;;1.35;0.88;;;;;;;23.18;50.87;97274.41;5073263;28;20194;-54
2022/05/27 07:24:47;;;;;;;2.38;0.98;;;;;;;23.12;50.14;97269.84;5066684;28;20294;-53
2022/05/27 07:27:13;;;;;;;0.98;0.90;;;;;;;23.47;49.59;97268.63;5056221;28;20211;-54
2022/05/27 07:29:42;;;;;;;1.27;1.08;;;;;;;23.14;52.23;97265.91;5055347;28;20231;-53
2022/05/27 07:32:09;;;;;;;2.00;1.10;;;;;;;23.32;49.80;97262.59;5056125;28;20598;-54
2022/05/27 07:34:36;;;;;;;1.88;1.30;;;;;;;23.64;52.18;97275.25;5055995;28;20221;-52
2022/05/27 07:37:04;;;;;;;2.63;1.23;;;;;;;23.48;49.97;97270.31;5055596;28;20227;-52
2022/05/27 07:39:31;;;;;;;1.10;0.77;;;;;;;23.78;50.59;97274.19;5055499;28;20210;-54
2022/05/27 07:41:57;;;;;;;1.85;1.63;;;;;;;23.51;48.11;97264.47;5054663;28;20211;-54
2022/05/27 07:44:24;;;;;;;1.95;1.80;;;;;;;23.29;50.84;97265.69;5055038;28;20206;-52
2022/05/27 07:46:53;;;;;;;1.30;1.20;;;;;;;23.44;49.90;97262.81;5055756;28;20230;-54
2022/05/27 07:49:20;;;;;;;1.35;1.25;;;;;;;23.40;49.80;97259.69;5055173;28;20536;-54
2022/05/27 07:51:48;;;;;;;2.15;1.30;;;;;;;23.13;48.88;97249.94;5055299;28;20203;-53
2022/05/27 07:54:15;;;;;;;1.35;1.27;;;;;;;23.02;52.33;97258.63;5055881;28;20203;-54
2022/05/27 07:56:42;;;;;;;2.00;1.42;;;;;;;23.29;49.64;97250.34;5055527;28;20231;-54
2022/05/27 07:59:09;;;;;;;1.95;1.60;;;;;;;23.47;50.90;97252.44;5054840;28;20238;-53
2022/05/27 08:01:36;;;;;;;3.35;1.60;;;;;;;23.53;50.65;97251.59;5043270;28;20203;-54
2022/05/27 08:04:05;;;;;;;2.58;1.15;;;;;;;23.60;51.76;97252.41;5051256;28;20302;-54
2022/05/27 08:06:32;;;;;;;2.00;1.52;;;;;;;23.76;50.71;97241.19;5055431;28;20218;-55
2022/05/27 08:09:01;;;;;;;1.90;1.30;;;;;;;23.57;52.50;97244.75;5050655;28;20207;-55
2022/05/27 08:11:28;;;;;;;1.20;1.10;;;;;;;24.01;48.83;97243.19;5055112;28;20264;-55
2022/05/27 08:13:55;;;;;;;0.90;0.90;;;;;;;23.88;49.83;97243.25;5055108;28;20218;-55
2022/05/27 08:16:22;;;;;;;3.50;1.42;;;;;;;24.31;51.51;97244.34;5055060;28;20745;-55
2022/05/27 08:18:49;;;;;;;1.58;1.17;;;;;;;24.39;48.73;97241.41;5054807;28;21413;-55
2022/05/27 08:21:17;;;;;;;2.35;1.35;;;;;;;24.81;46.89;97244.50;5055328;28;20202;-55
2022/05/27 08:23:43;;;;;;;1.50;1.40;;;;;;;24.49;46.12;97232.81;5054891;28;20237;-55
2022/05/27 08:26:11;;;;;;;1.40;1.30;;;;;;;24.16;48.27;97231.09;5054731;28;20211;-54
2022/05/27 08:28:38;;;;;;;0.90;0.90;;;;;;;24.51;49.58;97228.88;5046993;28;20239;-54
2022/05/27 08:31:04;;;;;;;1.27;1.13;;;;;;;24.86;50.13;97226.59;5054915;28;20272;-54
2022/05/27 08:38:00;;;;;;;2.47;1.20;;;;;;;24.70;46.76;97216.25;5054904;28;20207;-55
2022/05/27 08:39:05;;;;;;;0.95;0.90;;;;;;;25.64;47.40;97225.16;5054650;28;20212;-54
2022/05/27 08:41:59;;;;;;;1.65;0.77;;;;;;;25.09;45.70;97217.88;5054644;28;20549;-55
2022/05/27 08:44:44;;;;;;;1.88;1.35;;;;;;;25.36;47.14;97224.75;5054290;28;20230;-55
2022/05/27 08:47:17;;;;;;;1.02;0.93;;;;;;;25.15;45.68;97227.84;5054061;28;20207;-54
2022/05/27 08:49:48;;;;;;;1.58;1.02;;;;;;;24.51;45.03;97220.75;5054689;28;20199;-53
2022/05/27 08:52:18;;;;;;;3.05;1.38;;;;;;;24.17;47.56;97218.41;5054874;28;20218;-52
2022/05/27 08:54:48;;;;;;;1.20;1.10;;;;;;;24.45;47.66;97218.91;5054822;28;20237;-54
2022/05/27 09:00:04;;;;;;;0.88;0.82;;;;;;;24.67;49.32;97206.72;5045916;28;20253;-53
2022/05/27 09:02:34;;;;;;;3.00;1.38;;;;;;;24.88;45.51;97208.25;5066255;28;20207;-54
2022/05/27 09:05:06;;;;;;;1.23;1.13;;;;;;;24.84;45.87;97214.31;5051472;28;20218;-54
2022/05/27 09:07:40;;;;;;;1.77;1.17;;;;;;;24.61;48.07;97210.28;5054443;28;20202;-53
2022/05/27 09:10:10;;;;;;;1.17;1.05;;;;;;;24.79;47.51;97209.56;5055416;28;20647;-54
2022/05/27 09:12:46;;;;;;;1.67;1.20;;;;;;;24.76;49.73;97204.59;5057370;28;20210;-55
2022/05/27 09:15:32;;;;;;;1.48;1.35;;;;;;;24.58;46.18;97202.63;5058068;28;20573;-53
2022/05/27 09:18:11;;;;;;;1.92;1.17;;;;;;;24.73;48.57;97208.53;5047774;28;20557;-53
2022/05/27 09:20:49;;;;;;;2.03;1.55;;;;;;;24.80;45.49;97204.97;5059506;28;20214;-56
2022/05/27 09:23:31;;;;;;;1.40;1.30;;;;;;;24.95;46.69;97208.22;5074650;28;20199;-54
2022/05/27 09:26:02;;;;;;;2.00;1.63;;;;;;;24.89;45.87;97198.28;5062967;28;20206;-55
2022/05/27 09:28:40;;;;;;;1.35;1.25;;;;;;;24.87;47.57;97198.47;5058302;28;20231;-55
2022/05/27 09:31:11;;;;;;;1.40;1.30;;;;;;;24.86;45.71;97204.97;5064997;28;20214;-53
2022/05/27 09:33:38;;;;;;;1.40;1.23;;;;;;;24.41;47.40;97201.44;5064691;28;20210;-54
2022/05/27 09:36:10;;;;;;;2.47;1.42;;;;;;;24.05;47.49;97198.50;5058179;28;20218;-53
2022/05/27 09:38:40;;;;;;;1.90;1.73;;;;;;;24.32;46.20;97202.75;5057938;28;20219;-54
2022/05/27 09:41:23;;;;;;;1.48;1.02;;;;;;;24.52;48.04;97191.81;5079328;28;20186;-54
2022/05/27 09:43:55;;;;;;;2.50;0.80;;;;;;;25.02;48.24;97190.03;5075800;28;20218;-56
2022/05/27 09:46:27;;;;;;;2.45;1.30;;;;;;;24.99;45.12;97195.91;5070739;28;20211;-54
2022/05/27 09:48:56;;;;;;;1.65;1.20;;;;;;;24.74;45.49;97196.69;5059954;28;20211;-54
2022/05/27 09:51:26;;;;;;;1.00;0.90;;;;;;;24.63;48.34;97191.97;5058019;28;20199;-53
2022/05/27 09:53:54;;;;;;;1.98;1.38;;;;;;;24.34;49.33;97195.25;5057318;28;20207;-54
2022/05/27 09:56:34;;;;;;;4.43;4.03;;;;;;;24.82;48.02;97197.47;5058305;28;20222;-54
2022/05/27 09:59:20;;;;;;;1.67;1.30;;;;;;;25.22;49.27;97188.81;5058315;28;20213;-53
2022/05/27 10:01:47;;;;;;;1.50;1.40;;;;;;;24.91;45.34;97190.75;5056970;28;20226;-54
2022/05/27 10:04:15;;;;;;;1.05;1.05;;;;;;;24.58;50.88;97191.81;5054021;28;20215;-54
2022/05/27 10:06:45;;;;;;;2.53;1.30;;;;;;;24.96;49.55;97190.94;5057866;28;20219;-54
2022/05/27 10:09:28;;;;;;;2.35;1.40;;;;;;;25.00;47.36;97178.63;5052900;28;20583;-54
2022/05/27 10:11:55;;;;;;;1.05;0.93;;;;;;;25.24;46.75;97181.31;5057106;28;20207;-54
2022/05/27 10:14:27;;;;;;;1.23;1.10;;;;;;;25.47;47.11;97177.97;5058299;28;20207;-54
2022/05/27 10:17:08;;;;;;;1.75;1.17;;;;;;;25.18;45.98;97176.81;5057997;28;20549;-53
2022/05/27 10:19:36;;;;;;;3.38;1.33;;;;;;;25.00;47.97;97167.81;5057275;28;20297;-53
2022/05/27 10:22:04;;;;;;;4.00;1.25;;;;;;;25.04;48.19;97163.59;5048021;28;20615;-54
2022/05/27 10:24:33;;;;;;;1.73;1.00;;;;;;;24.83;48.95;97166.66;5058656;28;20219;-54
2022/05/27 10:27:11;;;;;;;1.35;1.35;;;;;;;25.09;49.25;97158.34;5045652;28;20609;-57
2022/05/27 10:29:54;;;;;;;1.95;1.20;;;;;;;25.39;46.73;97166.63;5051531;28;20235;-54
2022/05/27 10:32:31;;;;;;;3.53;2.40;;;;;;;25.37;48.45;97158.69;5061639;28;20203;-54
2022/05/27 10:34:58;;;;;;;1.90;1.08;;;;;;;25.59;49.24;97157.25;5066291;28;20210;-55
2022/05/27 10:37:35;;;;;;;0.77;0.75;;;;;;;25.42;49.28;97149.91;5064077;28;20280;-55
2022/05/27 10:40:10;;;;;;;1.95;1.17;;;;;;;25.50;48.80;97155.03;5059996;28;20202;-54
2022/05/27 10:42:49;;;;;;;1.15;0.98;;;;;;;25.80;49.52;97153.25;5058287;28;20210;-53
2022/05/27 10:45:24;;;;;;;1.20;1.10;;;;;;;26.10;48.02;97147.91;5056659;28;20209;-52
2022/05/27 10:48:09;;;;;;;1.23;0.88;;;;;;;26.32;48.23;97148.28;5056887;28;20194;-52
2022/05/27 10:50:42;;;;;;;1.17;1.08;;;;;;;26.39;48.95;97146.28;5057115;28;20207;-54
2022/05/27 10:53:22;;;;;;;1.63;0.88;;;;;;;26.29;45.94;97149.53;5060391;28;20211;-54
2022/05/27 10:55:56;;;;;;;1.25;1.13;;;;;;;26.33;45.75;97147.19;5060443;28;20214;-52
2022/05/27 11:04:35;;;;;;;1.40;1.00;;;;;;;25.85;47.10;97134.47;5059622;28;20494;-52
2022/05/27 11:07:12;;;;;;;1.17;1.00;;;;;;;25.93;46.01;97136.03;5058311;28;20198;-51
2022/05/27 11:09:50;;;;;;;0.80;0.80;;;;;;;25.88;47.08;97149.44;5058955;28;20199;-53
2022/05/27 11:12:24;;;;;;;1.20;1.10;;;;;;;26.04;46.58;97137.97;5060027;28;20559;-52
2022/05/27 11:15:12;;;;;;;2.72;0.95;;;;;;;26.13;47.10;97144.72;5064849;28;20215;-54
2022/05/27 11:17:50;;;;;;;1.35;1.17;;;;;;;26.19;47.16;97130.28;5078882;28;20195;-52
2022/05/27 11:20:47;;;;;;;2.20;0.85;;;;;;;26.23;47.32;97137.72;5076256;28;20205;-53
2022/05/27 11:23:35;;;;;;;1.10;0.82;;;;;;;25.91;45.51;97127.28;5075469;28;20191;-52
2022/05/27 11:26:09;;;;;;;0.95;0.73;;;;;;;26.07;45.58;97126.69;5075881;28;20210;-53
2022/05/27 11:28:46;;;;;;;0.80;0.80;;;;;;;26.32;43.87;97127.41;5071840;28;20239;-53
2022/05/27 11:31:20;;;;;;;2.58;1.00;;;;;;;26.23;45.38;97120.63;5073991;28;20198;-52
2022/05/27 11:33:56;;;;;;;1.25;0.77;;;;;;;26.02;45.59;97124.66;5066697;28;20255;-53
2022/05/27 11:36:40;;;;;;;2.05;0.70;;;;;;;26.10;46.22;97120.78;5056564;28;20172;-52
2022/05/27 11:39:28;;;;;;;1.55;0.70;;;;;;;26.19;46.02;97124.84;5055632;28;20222;-53
2022/05/27 11:42:05;;;;;;;2.28;1.00;;;;;;;26.42;46.60;97129.56;5054749;28;20226;-54
2022/05/27 11:44:40;;;;;;;1.52;1.10;;;;;;;26.17;44.24;97116.97;5054466;28;20639;-53
2022/05/27 11:47:33;;;;;;;0.82;0.82;;;;;;;25.90;46.15;97115.63;5055665;28;20206;-53
2022/05/27 11:50:16;;;;;;;2.05;1.08;;;;;;;26.00;43.56;97121.34;5038598;28;20558;-54
2022/05/27 11:53:05;;;;;;;1.52;0.90;;;;;;;26.06;45.32;97108.75;5055181;28;20651;-52
2022/05/27 11:55:47;;;;;;;1.38;0.88;;;;;;;26.12;46.54;97103.22;5051939;28;20203;-54
2022/05/27 11:58:18;;;;;;;2.25;0.93;;;;;;;25.81;45.65;97108.88;5060196;28;20292;-53
2022/05/27 12:00:47;;;;;;;1.30;0.93;;;;;;;26.13;45.14;97104.91;5062934;28;20238;-53
2022/05/27 12:03:18;;;;;;;1.38;0.98;;;;;;;26.29;46.93;97108.06;5069389;28;20211;-53
2022/05/27 12:05:48;;;;;;;2.30;0.90;;;;;;;26.17;44.75;97106.13;5060675;28;20632;-52
2022/05/27 12:08:22;;;;;;;1.52;0.90;;;;;;;26.10;45.55;97094.50;5054938;28;20551;-54
2022/05/27 12:10:50;;;;;;;2.30;1.00;;;;;;;26.18;44.91;97096.13;5052799;28;20643;-51